Time;durP1;ratioP1;P1;durP2;ratioP2;P2;SDS_P1;SDS_P2;PMS_P1;PMS_P2;Temp;Humidity;BMP_temperature;BMP_pressure;BME280_temperature;BME280_humidity;BME280_pressure;Samples;Min_cycle;Max_cycle;Signal;HPM_P1;HPM_P2
2022/03/26 00:00:31;;;;;;;6.90;4.30;;;;;;;;;;5050030;28;20074;-44
2022/03/26 00:02:57;;;;;;;6.40;4.03;;;;;;;;;;5049786;28;20025;-50
2022/03/26 00:05:23;;;;;;;5.40;3.80;;;;;;;;;;5050420;28;20013;-45
2022/03/26 00:07:49;;;;;;;6.70;4.70;;;;;;;;;;5051601;28;20025;-44
2022/03/26 00:10:16;;;;;;;6.47;4.35;;;;;;;;;;5050493;28;20154;-44
2022/03/26 00:12:42;;;;;;;7.47;5.30;;;;;;;;;;5051704;28;20048;-43
2022/03/26 00:15:09;;;;;;;7.45;4.47;;;;;;;;;;5050609;28;20025;-48
2022/03/26 00:17:35;;;;;;;7.60;4.95;;;;;;;;;;5051898;28;20021;-43
2022/03/26 00:20:04;;;;;;;6.70;4.22;;;;;;;;;;5050173;28;20025;-47
2022/03/26 00:22:30;;;;;;;7.63;4.22;;;;;;;;;;5051156;28;20033;-44
2022/03/26 00:24:56;;;;;;;5.88;3.97;;;;;;;;;;5050811;28;20029;-51
2022/03/26 00:27:22;;;;;;;5.45;4.20;;;;;;;;;;5051272;28;20221;-44
2022/03/26 00:29:48;;;;;;;6.05;4.40;;;;;;;;;;5049888;28;20028;-46
2022/03/26 00:32:14;;;;;;;7.93;4.50;;;;;;;;;;5050701;28;20035;-48
2022/03/26 00:34:40;;;;;;;6.18;4.20;;;;;;;;;;5054927;28;20474;-47
2022/03/26 00:37:06;;;;;;;6.10;4.38;;;;;;;;;;5054555;28;20032;-45
2022/03/26 00:39:32;;;;;;;5.13;4.10;;;;;;;;;;5054480;28;20094;-46
2022/03/26 00:41:58;;;;;;;6.70;4.03;;;;;;;;;;5054567;28;20058;-51
2022/03/26 00:44:25;;;;;;;6.47;4.60;;;;;;;;;;5055030;28;20021;-45
2022/03/26 00:46:51;;;;;;;5.85;4.57;;;;;;;;;;5054518;28;20021;-45
2022/03/26 00:49:18;;;;;;;6.15;4.60;;;;;;;;;;5054032;28;20644;-47
2022/03/26 00:51:44;;;;;;;5.78;4.20;;;;;;;;;;5055405;28;20037;-45
2022/03/26 00:54:11;;;;;;;6.30;4.57;;;;;;;;;;5054157;28;20025;-49
2022/03/26 00:56:37;;;;;;;5.93;4.40;;;;;;;;;;5054713;28;20025;-48
2022/03/26 00:59:04;;;;;;;5.88;4.30;;;;;;;;;;5053970;28;20091;-44
2022/03/26 01:01:31;;;;;;;6.00;3.88;;;;;;;;;;5055233;28;20036;-46
2022/03/26 01:03:57;;;;;;;7.65;4.90;;;;;;;;;;5055252;28;20024;-50
2022/03/26 01:06:23;;;;;;;6.85;4.35;;;;;;;;;;5054681;28;20108;-48
2022/03/26 01:08:49;;;;;;;6.07;4.18;;;;;;;;;;5054191;28;20025;-46
2022/03/26 01:11:16;;;;;;;5.18;3.83;;;;;;;;;;5053650;28;20048;-45
2022/03/26 01:13:42;;;;;;;7.57;4.90;;;;;;;;;;5054710;28;20378;-46
2022/03/26 01:16:08;;;;;;;4.85;3.97;;;;;;;;;;5053659;28;20075;-43
2022/03/26 01:18:34;;;;;;;6.53;4.30;;;;;;;;;;5054675;28;20025;-48
2022/03/26 01:21:02;;;;;;;8.05;5.63;;;;;;;;;;5053606;28;20033;-52
2022/03/26 01:23:28;;;;;;;8.07;4.65;;;;;;;;;;5054214;28;20029;-48
2022/03/26 01:25:54;;;;;;;6.97;5.00;;;;;;;;;;5054015;28;20363;-44
2022/03/26 01:28:20;;;;;;;6.00;4.60;;;;;;;;;;5053478;28;20563;-43
2022/03/26 01:30:46;;;;;;;6.97;5.00;;;;;;;;;;5053913;28;20043;-45
2022/03/26 01:33:13;;;;;;;5.60;4.47;;;;;;;;;;5053246;28;20381;-43
2022/03/26 01:35:39;;;;;;;7.25;4.80;;;;;;;;;;5054052;28;20094;-46
2022/03/26 01:38:06;;;;;;;7.68;4.68;;;;;;;;;;5053339;28;20041;-46
2022/03/26 01:40:33;;;;;;;9.90;4.95;;;;;;;;;;5054030;28;20450;-43
2022/03/26 01:42:59;;;;;;;5.88;4.18;;;;;;;;;;5054237;28;20380;-50
2022/03/26 01:45:27;;;;;;;6.72;4.95;;;;;;;;;;5053481;28;20021;-44
2022/03/26 01:47:53;;;;;;;8.07;4.72;;;;;;;;;;5053898;28;20390;-44
2022/03/26 01:50:19;;;;;;;4.88;3.65;;;;;;;;;;5052980;28;20040;-46
2022/03/26 01:52:45;;;;;;;6.25;4.82;;;;;;;;;;5053742;28;20105;-45
2022/03/26 01:55:11;;;;;;;6.65;4.95;;;;;;;;;;5053134;28;20017;-43
2022/03/26 01:57:38;;;;;;;6.85;4.78;;;;;;;;;;5054021;28;20573;-44
2022/03/26 02:00:06;;;;;;;4.82;3.80;;;;;;;;;;5052841;28;20393;-44
2022/03/26 02:02:33;;;;;;;6.25;4.30;;;;;;;;;;5053515;28;20033;-45
2022/03/26 02:04:59;;;;;;;7.05;4.28;;;;;;;;;;5053131;28;20126;-49
2022/03/26 02:07:25;;;;;;;5.82;4.15;;;;;;;;;;5052071;28;20056;-44
2022/03/26 02:09:51;;;;;;;5.45;4.25;;;;;;;;;;5053383;28;20116;-46
2022/03/26 02:12:23;;;;;;;6.88;4.43;;;;;;;;;;5052557;28;20032;-45
2022/03/26 02:14:49;;;;;;;9.02;4.13;;;;;;;;;;5053156;28;20025;-47
2022/03/26 02:17:17;;;;;;;5.38;4.07;;;;;;;;;;5052400;28;20068;-45
2022/03/26 02:19:48;;;;;;;6.03;4.43;;;;;;;;;;5053076;28;20355;-47
2022/03/26 02:22:14;;;;;;;5.55;4.13;;;;;;;;;;5052988;28;20162;-44
2022/03/26 02:24:40;;;;;;;7.13;4.32;;;;;;;;;;5053477;28;20505;-48
2022/03/26 02:27:07;;;;;;;5.30;4.10;;;;;;;;;;5052433;28;20021;-45
2022/03/26 02:29:33;;;;;;;6.30;4.07;;;;;;;;;;5052913;28;20025;-48
2022/03/26 02:31:59;;;;;;;5.40;3.95;;;;;;;;;;5052798;28;20028;-50
2022/03/26 02:34:26;;;;;;;6.75;4.65;;;;;;;;;;5052525;28;20018;-47
2022/03/26 02:36:55;;;;;;;7.18;4.05;;;;;;;;;;5052342;28;20216;-45
2022/03/26 02:39:21;;;;;;;5.97;4.57;;;;;;;;;;5050947;28;20029;-48
2022/03/26 02:41:47;;;;;;;6.00;4.68;;;;;;;;;;5052478;28;20037;-49
2022/03/26 02:44:13;;;;;;;6.72;4.93;;;;;;;;;;5052085;28;20017;-44
2022/03/26 02:46:39;;;;;;;6.15;4.28;;;;;;;;;;5053135;28;20028;-47
2022/03/26 02:49:06;;;;;;;6.47;4.68;;;;;;;;;;5051523;28;20023;-47
2022/03/26 02:51:32;;;;;;;7.00;4.90;;;;;;;;;;5052736;28;20025;-49
2022/03/26 02:53:58;;;;;;;6.28;4.38;;;;;;;;;;5052802;28;20104;-46
2022/03/26 02:56:24;;;;;;;6.50;3.88;;;;;;;;;;5050933;28;20040;-45
2022/03/26 02:58:50;;;;;;;7.25;4.40;;;;;;;;;;5052471;28;20029;-44
2022/03/26 03:01:17;;;;;;;6.68;4.60;;;;;;;;;;5051571;28;20104;-44
2022/03/26 03:03:42;;;;;;;5.65;3.90;;;;;;;;;;5052049;28;20111;-43
2022/03/26 03:06:08;;;;;;;5.65;4.22;;;;;;;;;;5050469;28;20106;-45
2022/03/26 03:08:34;;;;;;;5.68;4.00;;;;;;;;;;5052454;28;20024;-44
2022/03/26 03:11:00;;;;;;;6.70;4.50;;;;;;;;;;5052115;28;20471;-49
2022/03/26 03:13:27;;;;;;;7.18;4.45;;;;;;;;;;5051834;28;20029;-48
2022/03/26 03:15:53;;;;;;;6.55;4.20;;;;;;;;;;5052472;28;20083;-48
2022/03/26 03:18:19;;;;;;;5.13;4.00;;;;;;;;;;5049811;28;20071;-45
2022/03/26 03:20:45;;;;;;;6.75;4.15;;;;;;;;;;5051219;28;20032;-45
2022/03/26 03:23:13;;;;;;;5.65;4.47;;;;;;;;;;5051231;28;20034;-47
2022/03/26 03:25:39;;;;;;;4.82;4.07;;;;;;;;;;5051924;28;20091;-45
2022/03/26 03:28:05;;;;;;;5.63;3.85;;;;;;;;;;5050085;28;20128;-51
2022/03/26 03:30:32;;;;;;;7.93;4.85;;;;;;;;;;5051894;28;20028;-43
2022/03/26 03:32:58;;;;;;;5.75;4.15;;;;;;;;;;5052105;28;20071;-47
2022/03/26 03:35:24;;;;;;;5.63;4.00;;;;;;;;;;5050862;28;20580;-48
2022/03/26 03:37:50;;;;;;;6.28;4.53;;;;;;;;;;5051655;28;20075;-44
2022/03/26 03:40:17;;;;;;;7.03;4.57;;;;;;;;;;5051074;28;20120;-43
2022/03/26 03:42:43;;;;;;;6.05;4.35;;;;;;;;;;5051688;28;20420;-43
2022/03/26 03:45:10;;;;;;;6.15;4.38;;;;;;;;;;5051283;28;20056;-43
2022/03/26 03:47:37;;;;;;;5.55;4.22;;;;;;;;;;5051501;28;20053;-43
2022/03/26 03:50:03;;;;;;;6.47;4.50;;;;;;;;;;5051376;28;20041;-51
2022/03/26 03:52:29;;;;;;;6.30;4.30;;;;;;;;;;5051047;28;20021;-43
2022/03/26 03:54:55;;;;;;;5.78;4.10;;;;;;;;;;5051799;28;20459;-43
2022/03/26 03:57:21;;;;;;;5.38;3.65;;;;;;;;;;5050580;28;20039;-43
2022/03/26 03:59:47;;;;;;;5.13;4.25;;;;;;;;;;5050683;28;20037;-44
2022/03/26 04:02:14;;;;;;;5.38;3.85;;;;;;;;;;5049703;28;20343;-44
2022/03/26 04:04:40;;;;;;;6.70;4.10;;;;;;;;;;5050249;28;20029;-43
2022/03/26 04:07:10;;;;;;;5.75;3.65;;;;;;;;;;5049668;28;20052;-44
2022/03/26 04:09:36;;;;;;;6.72;4.70;;;;;;;;;;5054259;28;20033;-46
2022/03/26 04:12:03;;;;;;;6.15;4.38;;;;;;;;;;5054411;28;20032;-49
2022/03/26 04:14:30;;;;;;;8.77;5.15;;;;;;;;;;5053895;28;20025;-44
2022/03/26 04:16:56;;;;;;;5.93;3.83;;;;;;;;;;5054714;28;20048;-46
2022/03/26 04:19:22;;;;;;;5.63;3.92;;;;;;;;;;5051962;28;20032;-44
2022/03/26 04:21:48;;;;;;;5.97;3.88;;;;;;;;;;5054158;28;20144;-44
2022/03/26 04:24:14;;;;;;;6.40;4.40;;;;;;;;;;5053330;28;20092;-45
2022/03/26 04:26:41;;;;;;;6.55;4.82;;;;;;;;;;5052845;28;20432;-45
2022/03/26 04:29:07;;;;;;;5.03;3.85;;;;;;;;;;5052947;28;20083;-49
2022/03/26 04:31:33;;;;;;;6.72;4.03;;;;;;;;;;5053950;28;20029;-50
2022/03/26 04:34:01;;;;;;;5.63;3.65;;;;;;;;;;5054601;28;20017;-45
2022/03/26 04:36:30;;;;;;;7.03;5.15;;;;;;;;;;5054400;28;20021;-45
2022/03/26 04:38:57;;;;;;;4.85;3.65;;;;;;;;;;5055282;28;20052;-44
2022/03/26 04:41:23;;;;;;;7.65;5.20;;;;;;;;;;5054494;28;20037;-44
2022/03/26 04:43:49;;;;;;;6.03;3.65;;;;;;;;;;5054655;28;20474;-44
2022/03/26 04:46:15;;;;;;;6.03;4.38;;;;;;;;;;5054175;28;20036;-46
2022/03/26 04:48:41;;;;;;;7.10;4.15;;;;;;;;;;5054606;28;20025;-50
2022/03/26 04:51:07;;;;;;;6.03;3.97;;;;;;;;;;5034143;28;20123;-51
2022/03/26 04:53:34;;;;;;;6.68;4.43;;;;;;;;;;5034866;28;20159;-46
2022/03/26 04:56:00;;;;;;;5.85;4.05;;;;;;;;;;5035246;28;20481;-44
2022/03/26 04:58:26;;;;;;;5.47;3.75;;;;;;;;;;5048783;28;20041;-49
2022/03/26 05:00:52;;;;;;;4.97;3.97;;;;;;;;;;5054760;28;20429;-44
2022/03/26 05:03:18;;;;;;;7.80;4.30;;;;;;;;;;5054027;28;20025;-45
2022/03/26 05:05:44;;;;;;;5.50;3.53;;;;;;;;;;5054669;28;20025;-48
2022/03/26 05:08:10;;;;;;;7.40;4.00;;;;;;;;;;5054109;28;20031;-44
2022/03/26 05:10:36;;;;;;;5.82;4.53;;;;;;;;;;5054601;28;20385;-43
2022/03/26 05:13:02;;;;;;;5.30;4.05;;;;;;;;;;5054694;28;20021;-47
2022/03/26 05:15:29;;;;;;;5.32;3.75;;;;;;;;;;5053353;28;20032;-44
2022/03/26 05:17:56;;;;;;;6.45;3.75;;;;;;;;;;5054450;28;20017;-45
2022/03/26 05:20:23;;;;;;;5.78;4.15;;;;;;;;;;5051958;28;20067;-47
2022/03/26 05:22:49;;;;;;;5.85;3.65;;;;;;;;;;5054189;28;20032;-44
2022/03/26 05:25:15;;;;;;;6.07;4.38;;;;;;;;;;5053723;28;20025;-47
2022/03/26 05:27:45;;;;;;;6.00;4.20;;;;;;;;;;5054245;28;20490;-47
2022/03/26 05:30:12;;;;;;;6.05;4.18;;;;;;;;;;5053648;28;20033;-47
2022/03/26 05:32:38;;;;;;;5.07;3.88;;;;;;;;;;5053832;28;20155;-47
2022/03/26 05:35:06;;;;;;;6.72;4.30;;;;;;;;;;5053970;28;20486;-49
2022/03/26 05:37:33;;;;;;;5.25;3.50;;;;;;;;;;5053581;28;20083;-48
2022/03/26 05:39:59;;;;;;;6.40;4.70;;;;;;;;;;5054231;28;20059;-45
2022/03/26 05:42:25;;;;;;;4.88;3.92;;;;;;;;;;5052916;28;20822;-45
2022/03/26 05:44:51;;;;;;;5.45;3.78;;;;;;;;;;5054251;28;20033;-44
2022/03/26 05:47:16;;;;;;;6.05;3.78;;;;;;;;;;5052980;28;20466;-43
2022/03/26 05:49:42;;;;;;;9.55;4.55;;;;;;;;;;5054016;28;20061;-44
2022/03/26 05:52:08;;;;;;;5.70;3.80;;;;;;;;;;5052088;28;20343;-51
2022/03/26 05:54:35;;;;;;;6.25;4.20;;;;;;;;;;5053814;28;20382;-43
2022/03/26 05:57:00;;;;;;;4.25;3.22;;;;;;;;;;5053687;28;20536;-44
2022/03/26 05:59:28;;;;;;;5.10;3.72;;;;;;;;;;5052994;28;20020;-44
2022/03/26 06:01:54;;;;;;;6.20;4.32;;;;;;;;;;5052572;28;20363;-44
2022/03/26 06:04:23;;;;;;;4.97;3.80;;;;;;;;;;5052744;28;20017;-44
2022/03/26 06:06:49;;;;;;;5.60;3.55;;;;;;;;;;5053495;28;20025;-43
2022/03/26 06:09:15;;;;;;;4.75;3.70;;;;;;;;;;5052266;28;20029;-44
2022/03/26 06:11:41;;;;;;;4.53;3.58;;;;;;;;;;5053407;28;20082;-43
2022/03/26 06:14:08;;;;;;;5.22;3.90;;;;;;;;;;5053401;28;20420;-50
2022/03/26 06:16:34;;;;;;;7.25;4.65;;;;;;;;;;5052993;28;20035;-44
2022/03/26 06:19:01;;;;;;;5.68;4.07;;;;;;;;;;5053549;28;20104;-44
2022/03/26 06:21:29;;;;;;;5.20;4.15;;;;;;;;;;5052516;28;20040;-47
2022/03/26 06:23:57;;;;;;;5.50;4.15;;;;;;;;;;5053017;28;20469;-45
2022/03/26 06:26:23;;;;;;;6.07;4.20;;;;;;;;;;5052417;28;20319;-43
2022/03/26 06:28:50;;;;;;;6.07;4.22;;;;;;;;;;5052821;28;20017;-46
2022/03/26 06:31:16;;;;;;;6.05;3.92;;;;;;;;;;5052230;28;20029;-45
2022/03/26 06:33:42;;;;;;;4.93;3.53;;;;;;;;;;5053049;28;20478;-45
2022/03/26 06:36:08;;;;;;;5.30;4.35;;;;;;;;;;5052231;28;20031;-52
2022/03/26 06:38:38;;;;;;;5.15;3.40;;;;;;;;;;5052380;28;20059;-43
2022/03/26 06:41:12;;;;;;;6.43;4.88;;;;;;;;;;5051372;28;20036;-43
2022/03/26 06:43:39;;;;;;;5.32;4.00;;;;;;;;;;5053076;28;20358;-46
2022/03/26 06:46:05;;;;;;;6.07;4.30;;;;;;;;;;5052660;28;20025;-44
2022/03/26 06:48:32;;;;;;;8.57;3.75;;;;;;;;;;5052162;28;20067;-44
2022/03/26 06:51:00;;;;;;;5.10;3.80;;;;;;;;;;5052341;28;20048;-44
2022/03/26 06:53:26;;;;;;;7.20;4.05;;;;;;;;;;5051903;28;20045;-45
2022/03/26 06:55:52;;;;;;;5.95;3.97;;;;;;;;;;5052598;28;20458;-44
2022/03/26 06:58:18;;;;;;;5.10;4.13;;;;;;;;;;5051746;28;20536;-43
2022/03/26 07:00:44;;;;;;;5.68;4.32;;;;;;;;;;5052452;28;20458;-43
2022/03/26 07:03:10;;;;;;;5.32;3.90;;;;;;;;;;5052175;28;20053;-49
2022/03/26 07:05:37;;;;;;;7.78;4.20;;;;;;;;;;5052644;28;20028;-44
2022/03/26 07:08:04;;;;;;;5.63;4.45;;;;;;;;;;5052195;28;20017;-43
2022/03/26 07:10:30;;;;;;;5.80;4.43;;;;;;;;;;5051821;28;20037;-43
2022/03/26 07:12:56;;;;;;;7.25;4.07;;;;;;;;;;5052058;28;20029;-43
2022/03/26 07:15:22;;;;;;;7.35;4.32;;;;;;;;;;5051230;28;20048;-46
2022/03/26 07:17:48;;;;;;;6.00;3.95;;;;;;;;;;5052431;28;20025;-43
2022/03/26 07:20:14;;;;;;;4.97;3.63;;;;;;;;;;5051379;28;20096;-43
2022/03/26 07:22:41;;;;;;;22.45;14.63;;;;;;;;;;5052253;28;20087;-48
2022/03/26 07:25:08;;;;;;;19.23;10.90;;;;;;;;;;5051610;28;20378;-46
2022/03/26 07:27:35;;;;;;;16.00;10.55;;;;;;;;;;5050442;28;20021;-44
2022/03/26 07:30:01;;;;;;;13.10;9.27;;;;;;;;;;5051780;28;20029;-44
2022/03/26 07:32:28;;;;;;;10.95;7.68;;;;;;;;;;5051724;28;20033;-45
2022/03/26 07:34:55;;;;;;;9.68;7.20;;;;;;;;;;5052029;28;20017;-47
2022/03/26 07:37:21;;;;;;;11.05;6.47;;;;;;;;;;5050356;28;20071;-47
2022/03/26 07:39:47;;;;;;;8.95;6.53;;;;;;;;;;5051346;28;20049;-44
2022/03/26 07:42:13;;;;;;;9.77;5.57;;;;;;;;;;5050230;28;20025;-50
2022/03/26 07:44:39;;;;;;;8.55;5.70;;;;;;;;;;5051584;28;20482;-45
2022/03/26 07:47:05;;;;;;;6.97;5.55;;;;;;;;;;5050745;28;20033;-47
2022/03/26 07:49:32;;;;;;;10.05;6.53;;;;;;;;;;5050406;28;20017;-47
2022/03/26 07:51:58;;;;;;;9.32;5.75;;;;;;;;;;5050151;28;20482;-47
2022/03/26 07:54:25;;;;;;;7.82;5.30;;;;;;;;;;5050538;28;20474;-47
2022/03/26 07:56:51;;;;;;;9.10;4.97;;;;;;;;;;5051372;28;20040;-43
2022/03/26 07:59:17;;;;;;;10.23;5.38;;;;;;;;;;5050884;28;20017;-43
2022/03/26 08:01:44;;;;;;;9.73;5.25;;;;;;;;;;5051461;28;20044;-43
2022/03/26 08:04:10;;;;;;;7.18;5.03;;;;;;;;;;5051612;28;20032;-52
2022/03/26 08:06:36;;;;;;;7.53;5.00;;;;;;;;;;5051171;28;20071;-43
2022/03/26 08:09:02;;;;;;;6.32;4.68;;;;;;;;;;5051433;28;20096;-44
2022/03/26 08:11:28;;;;;;;7.50;4.97;;;;;;;;;;5049849;28;20120;-46
2022/03/26 08:13:54;;;;;;;7.43;4.65;;;;;;;;;;5052033;28;20025;-43
2022/03/26 08:16:20;;;;;;;9.65;5.22;;;;;;;;;;5049471;28;20021;-44
2022/03/26 08:18:46;;;;;;;6.75;5.03;;;;;;;;;;5050866;28;20386;-45
2022/03/26 08:21:14;;;;;;;7.55;5.60;;;;;;;;;;5049360;28;20091;-46
2022/03/26 08:23:40;;;;;;;9.63;5.45;;;;;;;;;;5046504;28;20044;-46
2022/03/26 08:26:26;;;;;;;7.32;5.13;;;;;;;;;;5049533;28;20025;-44
2022/03/26 08:28:54;;;;;;;8.20;4.97;;;;;;;;;;5050899;28;20025;-45
2022/03/26 08:31:22;;;;;;;8.45;4.80;;;;;;;;;;5049290;28;20029;-41
2022/03/26 08:33:48;;;;;;;9.15;5.03;;;;;;;;;;5050648;28;20029;-48
2022/03/26 08:36:15;;;;;;;9.73;5.07;;;;;;;;;;5049364;28;20032;-56
2022/03/26 08:38:44;;;;;;;7.70;5.07;;;;;;;;;;5050030;28;20053;-47
2022/03/26 08:41:14;;;;;;;6.30;4.35;;;;;;;;;;5050720;28;20059;-43
2022/03/26 08:43:41;;;;;;;6.85;3.80;;;;;;;;;;5049725;28;20434;-51
2022/03/26 08:46:07;;;;;;;6.50;4.60;;;;;;;;;;5050284;28;20033;-43
2022/03/26 08:48:34;;;;;;;6.22;4.28;;;;;;;;;;5049756;28;20591;-46
2022/03/26 08:51:01;;;;;;;7.65;4.32;;;;;;;;;;5050303;28;20112;-41
2022/03/26 08:53:27;;;;;;;9.80;5.00;;;;;;;;;;5049635;28;20410;-41
2022/03/26 08:55:53;;;;;;;7.43;4.15;;;;;;;;;;5053768;28;20033;-43
2022/03/26 08:58:20;;;;;;;6.70;4.53;;;;;;;;;;5053484;28;20017;-46
2022/03/26 09:00:47;;;;;;;5.53;3.55;;;;;;;;;;5054053;28;20031;-41
2022/03/26 09:03:14;;;;;;;8.40;4.45;;;;;;;;;;5053013;28;20112;-50
2022/03/26 09:05:41;;;;;;;8.38;4.75;;;;;;;;;;5053647;28;20024;-44
2022/03/26 09:08:07;;;;;;;7.28;4.00;;;;;;;;;;5053716;28;20028;-45
2022/03/26 09:10:33;;;;;;;7.60;4.15;;;;;;;;;;5053137;28;20029;-51
2022/03/26 09:12:59;;;;;;;7.18;4.32;;;;;;;;;;5053598;28;20021;-44
2022/03/26 09:15:25;;;;;;;4.85;3.33;;;;;;;;;;5052282;28;20433;-45
2022/03/26 09:17:51;;;;;;;5.90;4.22;;;;;;;;;;5053706;28;20074;-44
2022/03/26 09:20:18;;;;;;;6.55;4.25;;;;;;;;;;5052667;28;20135;-46
2022/03/26 09:22:44;;;;;;;7.13;3.70;;;;;;;;;;5053470;28;20029;-42
2022/03/26 09:25:11;;;;;;;5.65;4.15;;;;;;;;;;5053296;28;20025;-47
2022/03/26 09:27:37;;;;;;;8.55;3.88;;;;;;;;;;5052796;28;20048;-44
2022/03/26 09:30:04;;;;;;;11.35;4.95;;;;;;;;;;5053573;28;20017;-44
2022/03/26 09:32:30;;;;;;;7.63;4.90;;;;;;;;;;5052506;28;20082;-43
2022/03/26 09:34:56;;;;;;;9.25;4.47;;;;;;;;;;5053194;28;20446;-43
2022/03/26 09:37:22;;;;;;;6.05;4.00;;;;;;;;;;5052268;28;20033;-40
2022/03/26 09:39:48;;;;;;;6.13;3.72;;;;;;;;;;5053403;28;20048;-43
2022/03/26 09:42:14;;;;;;;7.90;4.07;;;;;;;;;;5046219;28;20451;-44
2022/03/26 09:44:40;;;;;;;7.18;4.43;;;;;;;;;;5053079;28;20492;-44
2022/03/26 09:47:09;;;;;;;8.10;3.67;;;;;;;;;;5054186;28;20100;-43
2022/03/26 09:49:37;;;;;;;8.95;4.40;;;;;;;;;;5051991;28;20009;-44
2022/03/26 09:52:05;;;;;;;7.28;4.65;;;;;;;;;;5050347;28;20088;-45
2022/03/26 09:54:32;;;;;;;7.43;3.97;;;;;;;;;;5051693;28;20489;-45
2022/03/26 09:56:58;;;;;;;8.65;5.43;;;;;;;;;;5052232;28;20427;-47
2022/03/26 09:59:24;;;;;;;6.07;4.20;;;;;;;;;;5051367;28;20028;-44
2022/03/26 10:01:51;;;;;;;5.82;4.03;;;;;;;;;;5050976;28;20025;-43
2022/03/26 10:04:18;;;;;;;6.70;3.90;;;;;;;;;;5051992;28;20021;-51
2022/03/26 10:06:49;;;;;;;6.85;4.10;;;;;;;;;;5050312;28;20470;-44
2022/03/26 10:09:41;;;;;;;7.10;4.50;;;;;;;;;;5049933;28;20029;-49
2022/03/26 10:12:11;;;;;;;5.90;4.60;;;;;;;;;;5051384;28;20029;-44
2022/03/26 10:14:42;;;;;;;6.03;4.25;;;;;;;;;;5050593;28;20147;-43
2022/03/26 10:17:15;;;;;;;6.55;4.05;;;;;;;;;;5052747;28;20098;-43
2022/03/26 10:19:42;;;;;;;7.85;5.03;;;;;;;;;;5051729;28;20036;-42
2022/03/26 10:22:25;;;;;;;7.22;4.78;;;;;;;;;;5052544;28;20086;-43
2022/03/26 10:24:51;;;;;;;5.78;3.75;;;;;;;;;;5051976;28;20025;-43
2022/03/26 10:27:18;;;;;;;5.35;4.50;;;;;;;;;;5051251;28;20091;-52
2022/03/26 10:29:51;;;;;;;7.00;3.95;;;;;;;;;;5033124;28;20126;-45
2022/03/26 10:35:08;;;;;;;6.97;4.47;;;;;;;;;;5048754;28;20571;-42
2022/03/26 10:37:58;;;;;;;6.55;4.40;;;;;;;;;;5049832;28;20020;-41
2022/03/26 10:40:28;;;;;;;9.57;4.53;;;;;;;;;;5047089;28;20037;-41
2022/03/26 10:42:54;;;;;;;7.28;4.45;;;;;;;;;;5048254;28;20025;-43
2022/03/26 10:45:21;;;;;;;12.18;4.90;;;;;;;;;;5049347;28;20020;-43
2022/03/26 10:47:48;;;;;;;9.05;4.68;;;;;;;;;;5050493;28;20039;-41
2022/03/26 10:50:15;;;;;;;9.65;4.97;;;;;;;;;;5050866;28;20032;-41
2022/03/26 10:52:42;;;;;;;10.02;4.78;;;;;;;;;;5049557;28;20029;-42
2022/03/26 10:55:15;;;;;;;7.63;4.65;;;;;;;;;;5047886;28;20029;-43
2022/03/26 10:57:41;;;;;;;6.85;4.38;;;;;;;;;;5052292;28;20025;-41
2022/03/26 11:00:09;;;;;;;9.80;5.78;;;;;;;;;;5051083;28;20427;-43
2022/03/26 11:02:35;;;;;;;15.40;3.90;;;;;;;;;;5050459;28;20064;-42
2022/03/26 11:05:01;;;;;;;11.90;5.07;;;;;;;;;;5050089;28;20028;-42
2022/03/26 11:07:28;;;;;;;7.90;4.45;;;;;;;;;;5050283;28;20360;-43
2022/03/26 11:09:55;;;;;;;9.13;4.30;;;;;;;;;;5051193;28;20041;-43
2022/03/26 11:12:21;;;;;;;8.27;4.22;;;;;;;;;;5050799;28;20100;-49
2022/03/26 11:14:48;;;;;;;9.15;3.80;;;;;;;;;;5050929;28;20025;-42
2022/03/26 11:17:14;;;;;;;5.20;3.63;;;;;;;;;;5050719;28;20842;-41
2022/03/26 11:19:40;;;;;;;9.70;4.45;;;;;;;;;;5049697;28;20092;-41
2022/03/26 11:22:24;;;;;;;8.88;4.55;;;;;;;;;;5050430;28;20033;-42
2022/03/26 11:24:50;;;;;;;8.82;4.38;;;;;;;;;;5050788;28;20028;-42
2022/03/26 11:27:16;;;;;;;6.93;4.32;;;;;;;;;;5051293;28;20378;-45
2022/03/26 11:30:02;;;;;;;7.90;4.20;;;;;;;;;;5047196;28;20035;-42
2022/03/26 11:32:43;;;;;;;9.02;4.40;;;;;;;;;;5050700;28;20028;-41
2022/03/26 11:35:10;;;;;;;8.90;4.03;;;;;;;;;;5050546;28;20486;-44
2022/03/26 11:37:49;;;;;;;6.53;3.90;;;;;;;;;;5050312;28;20037;-42
2022/03/26 11:40:16;;;;;;;7.93;4.30;;;;;;;;;;5050886;28;20468;-41
2022/03/26 11:42:42;;;;;;;5.18;3.75;;;;;;;;;;5049950;28;20389;-41
2022/03/26 11:50:46;;;;;;;6.63;4.10;;;;;;;;;;5050154;28;19963;-43
2022/03/26 11:53:14;;;;;;;6.80;4.30;;;;;;;;;;5051046;28;20111;-41
2022/03/26 11:55:49;;;;;;;7.10;3.63;;;;;;;;;;5049901;28;20032;-44
2022/03/26 11:58:21;;;;;;;11.05;3.78;;;;;;;;;;5050980;28;20021;-44
2022/03/26 12:00:54;;;;;;;5.30;3.60;;;;;;;;;;5050056;28;20049;-47
2022/03/26 12:03:24;;;;;;;5.75;3.75;;;;;;;;;;5046585;28;20036;-48
2022/03/26 12:08:40;;;;;;;7.05;3.88;;;;;;;;;;5051551;28;20150;-43
2022/03/26 12:11:06;;;;;;;5.75;3.47;;;;;;;;;;5049922;28;20029;-42
2022/03/26 12:13:33;;;;;;;6.05;3.53;;;;;;;;;;5049741;28;20037;-41
2022/03/26 12:15:59;;;;;;;5.22;3.33;;;;;;;;;;5050149;28;20033;-45
2022/03/26 12:18:32;;;;;;;5.93;3.85;;;;;;;;;;5049937;28;20021;-42
2022/03/26 12:21:06;;;;;;;9.57;4.00;;;;;;;;;;5050345;28;20029;-44
2022/03/26 12:23:34;;;;;;;6.43;3.63;;;;;;;;;;5049840;28;20115;-42
2022/03/26 12:26:00;;;;;;;7.13;3.72;;;;;;;;;;5050155;28;20033;-45
2022/03/26 12:28:26;;;;;;;4.22;3.50;;;;;;;;;;5050129;28;20374;-42
2022/03/26 12:30:54;;;;;;;5.35;3.33;;;;;;;;;;5054046;28;20041;-43
2022/03/26 12:33:21;;;;;;;8.77;3.63;;;;;;;;;;5054085;28;20378;-45
2022/03/26 12:35:48;;;;;;;4.95;3.42;;;;;;;;;;5054352;28;20021;-44
2022/03/26 12:38:14;;;;;;;4.85;3.83;;;;;;;;;;5054192;28;20159;-41
2022/03/26 12:40:48;;;;;;;5.75;3.28;;;;;;;;;;5053362;28;20044;-44
2022/03/26 12:43:14;;;;;;;7.13;3.20;;;;;;;;;;5053957;28;20493;-43
2022/03/26 12:45:40;;;;;;;5.32;3.17;;;;;;;;;;5053182;28;20090;-44
2022/03/26 12:48:13;;;;;;;6.72;3.60;;;;;;;;;;5052551;28;20025;-48
2022/03/26 12:50:40;;;;;;;7.70;3.35;;;;;;;;;;5052758;28;20072;-43
2022/03/26 12:53:10;;;;;;;7.82;3.30;;;;;;;;;;5054412;28;20028;-42
2022/03/26 12:55:36;;;;;;;5.35;3.45;;;;;;;;;;5053094;28;20033;-42
2022/03/26 13:00:59;;;;;;;5.15;3.08;;;;;;;;;;5053428;28;20044;-41
2022/03/26 13:03:27;;;;;;;4.50;3.00;;;;;;;;;;5053223;28;20032;-41
2022/03/26 13:05:53;;;;;;;5.47;3.30;;;;;;;;;;5053830;28;20083;-42
2022/03/26 13:08:19;;;;;;;5.80;3.53;;;;;;;;;;5053888;28;20029;-47
2022/03/26 13:10:45;;;;;;;5.55;3.25;;;;;;;;;;5052994;28;20025;-42
2022/03/26 13:13:12;;;;;;;8.05;3.60;;;;;;;;;;5053838;28;20029;-41
2022/03/26 13:15:38;;;;;;;4.22;3.50;;;;;;;;;;5052558;28;20425;-45
2022/03/26 13:18:08;;;;;;;4.55;3.15;;;;;;;;;;5053431;28;20025;-42
2022/03/26 13:20:37;;;;;;;5.82;3.45;;;;;;;;;;5053154;28;20471;-41
2022/03/26 13:23:04;;;;;;;13.95;3.78;;;;;;;;;;5053700;28;20048;-43
2022/03/26 13:25:37;;;;;;;5.78;3.00;;;;;;;;;;5052712;28;20029;-42
2022/03/26 13:28:33;;;;;;;5.88;3.22;;;;;;;;;;5053776;28;20063;-41
2022/03/26 13:30:59;;;;;;;6.60;3.17;;;;;;;;;;5048321;28;20045;-46
2022/03/26 13:33:29;;;;;;;7.68;5.00;;;;;;;;;;5052510;28;20040;-45
2022/03/26 13:35:56;;;;;;;8.25;5.00;;;;;;;;;;5052996;28;20044;-44
2022/03/26 13:38:35;;;;;;;10.55;5.18;;;;;;;;;;5052408;28;20057;-48
2022/03/26 13:41:22;;;;;;;8.43;5.22;;;;;;;;;;5052084;28;20512;-42
2022/03/26 13:43:49;;;;;;;11.27;5.80;;;;;;;;;;5053211;28;20030;-43
2022/03/26 13:46:15;;;;;;;7.32;4.45;;;;;;;;;;5053072;28;20041;-45
2022/03/26 13:48:52;;;;;;;9.63;3.85;;;;;;;;;;5052270;28;20046;-42
2022/03/26 13:51:24;;;;;;;11.30;4.32;;;;;;;;;;5033272;28;20025;-43
2022/03/26 13:53:51;;;;;;;6.32;3.60;;;;;;;;;;5033621;28;20034;-43
2022/03/26 13:56:17;;;;;;;5.47;3.22;;;;;;;;;;5053041;28;20091;-43
2022/03/26 13:58:43;;;;;;;5.05;4.03;;;;;;;;;;5051849;28;20113;-43
2022/03/26 14:01:10;;;;;;;5.53;3.45;;;;;;;;;;5052133;28;20068;-45
2022/03/26 14:03:42;;;;;;;5.70;3.35;;;;;;;;;;5051243;28;20032;-42
2022/03/26 14:06:08;;;;;;;5.13;3.20;;;;;;;;;;5052623;28;20069;-43
2022/03/26 14:08:37;;;;;;;10.00;3.30;;;;;;;;;;5051976;28;20439;-43
2022/03/26 14:11:03;;;;;;;12.10;3.30;;;;;;;;;;5052387;28;20446;-42
2022/03/26 14:13:29;;;;;;;6.90;3.38;;;;;;;;;;5052002;28;20021;-46
2022/03/26 14:15:55;;;;;;;8.18;2.50;;;;;;;;;;5052438;28;20437;-48
2022/03/26 14:18:22;;;;;;;7.65;3.40;;;;;;;;;;5052047;28;20083;-51
2022/03/26 14:20:48;;;;;;;5.38;3.65;;;;;;;;;;5051743;28;20762;-47
2022/03/26 14:23:15;;;;;;;4.75;2.50;;;;;;;;;;5052451;28;20131;-43
2022/03/26 14:25:41;;;;;;;4.60;2.63;;;;;;;;;;5051094;28;20489;-43
2022/03/26 14:28:09;;;;;;;4.30;2.97;;;;;;;;;;5052202;28;20029;-45
2022/03/26 14:30:36;;;;;;;4.72;2.55;;;;;;;;;;5051371;28;20044;-45
2022/03/26 14:33:02;;;;;;;4.53;2.75;;;;;;;;;;5052201;28;20033;-47
2022/03/26 14:35:29;;;;;;;9.45;3.47;;;;;;;;;;5051209;28;20036;-45
2022/03/26 14:37:55;;;;;;;4.50;2.60;;;;;;;;;;5051764;28;20102;-45
2022/03/26 14:40:21;;;;;;;5.13;2.60;;;;;;;;;;5051376;28;20482;-51
2022/03/26 14:42:47;;;;;;;3.70;2.20;;;;;;;;;;5051931;28;20178;-46
2022/03/26 14:45:13;;;;;;;4.20;2.58;;;;;;;;;;5051928;28;20033;-43
2022/03/26 14:47:39;;;;;;;4.97;2.65;;;;;;;;;;5051161;28;20021;-46
2022/03/26 14:50:06;;;;;;;3.97;2.88;;;;;;;;;;5051749;28;20039;-46
2022/03/26 14:52:32;;;;;;;5.18;2.47;;;;;;;;;;5051077;28;20419;-43
2022/03/26 14:54:58;;;;;;;4.30;3.05;;;;;;;;;;5051583;28;20429;-43
2022/03/26 14:57:24;;;;;;;4.47;2.70;;;;;;;;;;5050509;28;20032;-42